Time;durP1;ratioP1;P1;durP2;ratioP2;P2;SDS_P1;SDS_P2;PMS_P1;PMS_P2;Temp;Humidity;BMP_temperature;BMP_pressure;BME280_temperature;BME280_humidity;BME280_pressure;Samples;Min_cycle;Max_cycle;Signal;HPM_P1;HPM_P2
2023/07/25 00:07:43;;;;;;;9.60;6.80;;;;;;;19.73;68.47;97987.48;437080;1254;139269;-64
2023/07/25 00:17:50;;;;;;;7.50;6.70;;;;;;;19.54;69.29;97990.40;434635;1256;139316;-65
2023/07/25 00:27:56;;;;;;;8.80;6.60;;;;;;;19.39;70.13;98003.74;434694;1253;139922;-66
2023/07/25 00:38:03;;;;;;;10.20;8.00;;;;;;;19.25;70.81;98008.07;436963;1253;139262;-64
2023/07/25 00:48:08;;;;;;;8.60;7.70;;;;;;;19.11;71.47;98014.23;434895;1256;139668;-64
2023/07/25 00:58:14;;;;;;;8.40;6.50;;;;;;;18.98;71.80;98004.19;435213;1256;140191;-66
2023/07/25 01:08:20;;;;;;;8.00;6.30;;;;;;;18.89;72.24;97991.21;435111;1256;139627;-65
2023/07/25 01:18:27;;;;;;;7.40;6.40;;;;;;;18.77;72.63;97992.26;435429;1253;139534;-65
2023/07/25 01:28:33;;;;;;;7.40;5.80;;;;;;;18.68;73.05;97995.60;436165;1252;139962;-65
2023/07/25 01:38:39;;;;;;;8.40;7.30;;;;;;;18.57;73.55;98011.41;435164;1254;139589;-64
2023/07/25 01:48:44;;;;;;;8.50;7.60;;;;;;;18.41;73.96;98013.58;435396;1256;140111;-63
2023/07/25 01:58:50;;;;;;;9.10;6.70;;;;;;;18.29;74.38;98013.24;435430;1256;139867;-65
2023/07/25 02:08:56;;;;;;;10.80;7.20;;;;;;;18.19;74.80;98017.82;434803;1253;139970;-65
2023/07/25 02:19:02;;;;;;;8.50;7.20;;;;;;;18.05;75.23;98027.41;434630;1254;140227;-64
2023/07/25 02:29:08;;;;;;;8.10;6.60;;;;;;;17.91;75.77;98023.70;434759;1254;140067;-65
2023/07/25 02:39:14;;;;;;;7.90;6.40;;;;;;;17.80;76.24;98034.10;434912;1254;139971;-64
2023/07/25 02:49:21;;;;;;;8.40;6.60;;;;;;;17.70;76.77;98050.70;435334;1256;140154;-64
2023/07/25 02:59:29;;;;;;;9.20;7.80;;;;;;;17.76;76.92;98054.95;434919;1253;139530;-65
2023/07/25 03:09:37;;;;;;;7.80;6.60;;;;;;;17.84;76.86;98057.48;435180;1256;139699;-64
2023/07/25 03:19:42;;;;;;;9.30;7.30;;;;;;;17.91;76.64;98054.17;435168;1253;140138;-64
2023/07/25 03:29:48;;;;;;;7.90;6.40;;;;;;;18.03;76.19;98072.85;435215;1254;139309;-65
2023/07/25 03:39:54;;;;;;;7.20;6.40;;;;;;;18.12;75.92;98077.94;435393;1253;139361;-63
2023/07/25 03:50:00;;;;;;;8.00;5.40;;;;;;;18.49;75.45;98082.92;435679;1256;140099;-65
2023/07/25 04:00:08;;;;;;;9.60;5.80;;;;;;;19.02;74.24;98094.33;435028;1253;139434;-65
2023/07/25 04:10:14;;;;;;;8.50;6.10;;;;;;;19.40;72.93;98105.90;435802;1256;140571;-64
2023/07/25 04:20:19;;;;;;;8.00;4.80;;;;;;;20.80;72.34;98110.41;435357;1253;139695;-65
2023/07/25 04:30:25;;;;;;;6.00;4.70;;;;;;;27.90;63.32;98112.88;435462;1256;139096;-65
2023/07/25 04:40:31;;;;;;;4.90;2.80;;;;;;;31.61;50.94;98114.73;435292;1256;139784;-64
2023/07/25 04:50:37;;;;;;;5.90;2.40;;;;;;;29.23;47.15;98116.52;435332;1256;138821;-63
2023/07/25 05:00:43;;;;;;;4.20;1.90;;;;;;;31.92;44.65;98111.84;435426;1253;138834;-64
2023/07/25 05:10:51;;;;;;;4.40;1.70;;;;;;;36.98;38.78;98115.17;435225;1256;138598;-65
2023/07/25 05:20:57;;;;;;;3.40;2.00;;;;;;;40.43;32.83;98114.55;435226;1253;138701;-66
2023/07/25 05:31:03;;;;;;;1.90;1.80;;;;;;;41.11;30.17;98121.73;434976;1253;138651;-65
2023/07/25 05:41:09;;;;;;;3.40;1.70;;;;;;;44.99;26.94;98119.01;434982;1256;140139;-66
2023/07/25 05:51:15;;;;;;;2.80;1.90;;;;;;;47.60;23.80;98116.84;434493;1256;139172;-66
2023/07/25 06:01:21;;;;;;;4.40;2.90;;;;;;;48.64;21.35;98123.11;434933;1256;139587;-67
2023/07/25 06:11:28;;;;;;;2.70;1.80;;;;;;;50.83;19.89;98126.04;435154;1253;139064;-66
2023/07/25 06:21:34;;;;;;;2.50;1.70;;;;;;;53.07;18.08;98133.11;435516;1253;138614;-66
2023/07/25 06:31:40;;;;;;;3.00;2.00;;;;;;;53.53;16.80;98136.27;435569;1253;138709;-68
2023/07/25 06:41:46;;;;;;;1.90;1.80;;;;;;;54.79;16.01;98143.99;438921;1253;138417;-64
2023/07/25 06:51:55;;;;;;;3.30;2.60;;;;;;;55.95;14.71;98149.50;435105;1256;141034;-66
2023/07/25 07:02:01;;;;;;;3.80;3.50;;;;;;;57.53;14.01;98148.34;435243;1253;138849;-67
2023/07/25 07:12:08;;;;;;;3.50;3.40;;;;;;;57.88;12.88;98150.31;434922;1256;139267;-68
2023/07/25 07:22:14;;;;;;;5.00;4.90;;;;;;;57.51;12.53;98143.80;435250;1253;138969;-71
2023/07/25 07:32:20;;;;;;;7.30;7.00;;;;;;;58.58;11.87;98147.44;438573;1254;139102;-70
2023/07/25 07:42:26;;;;;;;7.00;6.50;;;;;;;57.45;11.51;98166.89;438507;1256;193336;-72
2023/07/25 07:52:31;;;;;;;5.80;5.40;;;;;;;56.99;11.39;98169.79;438523;1256;138653;-67
2023/07/25 08:02:47;;;;;;;2.80;2.10;;;;;;;55.12;11.41;98154.11;435166;1256;138947;-73
2023/07/25 08:12:53;;;;;;;1.80;1.40;;;;;;;51.53;12.67;98132.81;436152;1254;139773;-70
2023/07/25 08:22:59;;;;;;;6.20;1.50;;;;;;;43.70;16.04;98094.73;435098;1253;138481;-72
2023/07/25 08:33:05;;;;;;;1.30;1.20;;;;;;;38.40;19.14;98091.05;435363;1256;138631;-69
2023/07/25 08:43:13;;;;;;;2.50;1.70;;;;;;;35.19;21.75;98113.91;435886;1256;139334;-69
2023/07/25 08:53:20;;;;;;;2.10;1.20;;;;;;;33.79;23.67;98137.14;435155;1256;139020;-66
2023/07/25 09:03:28;;;;;;;1.00;1.00;;;;;;;32.70;24.45;98150.70;435011;1256;138836;-72
2023/07/25 09:13:34;;;;;;;1.40;1.30;;;;;;;31.90;25.87;98145.10;436492;1256;138866;-67
2023/07/25 09:23:41;;;;;;;;;;;;;;;31.73;26.27;98139.41;444603;1253;139402;-64
2023/07/25 09:33:47;;;;;;;;;;;;;;;31.47;26.58;98124.12;435750;1254;125649;-66
2023/07/25 09:43:54;;;;;;;3.20;1.60;;;;;;;31.15;27.17;98126.16;434907;1256;126118;-69
2023/07/25 09:54:05;;;;;;;2.90;1.40;;;;;;;31.01;27.58;98125.89;434823;1256;138464;-65
2023/07/25 10:04:12;;;;;;;3.30;1.10;;;;;;;31.25;27.72;98129.27;435293;1254;138857;-65
2023/07/25 10:14:18;;;;;;;1.20;1.00;;;;;;;31.33;27.89;98119.05;435690;1254;140400;-63
2023/07/25 10:24:24;;;;;;;3.80;1.30;;;;;;;31.41;28.07;98114.33;435400;1256;139524;-67
2023/07/25 10:34:46;;;;;;;5.30;1.30;;;;;;;31.16;28.28;98115.05;435298;1256;140231;-67
2023/07/25 10:44:52;;;;;;;1.20;1.10;;;;;;;30.74;28.75;98125.71;435224;1256;139028;-66
2023/07/25 10:55:07;;;;;;;4.20;1.70;;;;;;;30.34;29.24;98127.77;435492;1254;139323;-63
2023/07/25 11:05:26;;;;;;;3.50;1.40;;;;;;;30.21;29.67;98118.63;435476;1254;138354;-64
2023/07/25 11:15:33;;;;;;;4.40;1.70;;;;;;;29.93;30.30;98118.23;435639;1256;140525;-66
2023/07/25 11:25:41;;;;;;;1.40;1.10;;;;;;;30.07;30.26;98107.78;435193;1257;138405;-65
2023/07/25 11:35:51;;;;;;;2.80;1.40;;;;;;;29.93;30.29;98093.77;435416;1256;138888;-65
2023/07/25 11:45:57;;;;;;;2.40;1.40;;;;;;;29.93;30.66;98084.05;435336;1256;139099;-66
2023/07/25 11:56:04;;;;;;;4.10;1.60;;;;;;;29.94;30.62;98067.88;435290;1256;139687;-65
2023/07/25 12:06:09;;;;;;;5.30;3.10;;;;;;;29.95;30.43;98072.27;435652;1256;138357;-62
2023/07/25 12:16:34;;;;;;;3.30;1.50;;;;;;;29.27;30.56;98074.27;435432;1256;139563;-64
2023/07/25 12:26:48;;;;;;;2.10;1.60;;;;;;;29.08;30.92;98070.30;435189;1254;138525;-65
2023/07/25 12:36:53;;;;;;;2.90;1.40;;;;;;;28.83;31.16;98062.29;435231;1257;138496;-62
2023/07/25 12:46:59;;;;;;;3.50;1.30;;;;;;;28.74;31.09;98054.52;435302;1256;139624;-64
2023/07/25 12:57:06;;;;;;;5.00;1.50;;;;;;;28.57;31.28;98047.97;435223;1257;138993;-65
2023/07/25 13:07:12;;;;;;;3.30;1.60;;;;;;;28.31;31.66;98042.03;437678;1255;140515;-65
2023/07/25 13:17:18;;;;;;;3.10;1.30;;;;;;;28.26;31.69;98035.14;435475;1257;138960;-65
2023/07/25 13:27:25;;;;;;;1.30;1.20;;;;;;;28.41;31.74;98030.64;435364;1257;139130;-66
2023/07/25 13:38:06;;;;;;;1.80;1.50;;;;;;;28.25;31.69;98020.47;435480;1257;138583;-67
2023/07/25 13:48:39;;;;;;;1.80;1.50;;;;;;;27.81;32.23;98016.00;436251;1254;138367;-63
2023/07/25 13:58:46;;;;;;;3.20;2.20;;;;;;;28.05;32.26;98022.94;435822;1257;139686;-65
2023/07/25 14:08:53;;;;;;;3.50;1.90;;;;;;;28.45;31.89;98033.81;435330;1255;139036;-67
2023/07/25 14:19:02;;;;;;;1.70;1.20;;;;;;;28.43;31.66;98028.08;435899;1256;139542;-75
2023/07/25 14:29:08;;;;;;;2.80;1.40;;;;;;;28.34;31.91;98023.45;438200;1255;141562;-75
2023/07/25 14:39:14;;;;;;;1.90;1.10;;;;;;;28.00;32.10;98017.92;438554;1254;139997;-76
2023/07/25 14:49:20;;;;;;;2.30;1.90;;;;;;;27.30;32.73;98016.08;438521;1256;140631;-77
2023/07/25 14:59:26;;;;;;;2.10;1.50;;;;;;;26.74;33.70;98021.05;438579;1254;140216;-76
2023/07/25 15:09:32;;;;;;;3.40;1.60;;;;;;;26.31;34.47;98034.35;438694;1254;140098;-76
2023/07/25 15:19:38;;;;;;;4.30;3.10;;;;;;;25.55;36.18;98043.83;438382;1254;139303;-77
2023/07/25 15:29:43;;;;;;;4.30;2.00;;;;;;;24.80;37.59;98050.88;436957;1254;138512;-68
2023/07/25 15:39:49;;;;;;;2.80;1.50;;;;;;;24.15;38.69;98053.82;435329;1257;139088;-68
2023/07/25 15:49:55;;;;;;;3.30;1.70;;;;;;;23.54;39.89;98049.00;435339;1256;139953;-73
2023/07/25 16:00:01;;;;;;;1.70;1.50;;;;;;;23.11;40.74;98052.02;435512;1254;138547;-69
2023/07/25 16:10:08;;;;;;;2.80;1.40;;;;;;;22.88;41.19;98050.75;434755;1254;138708;-68
2023/07/25 16:20:14;;;;;;;8.10;2.20;;;;;;;22.72;41.54;98057.84;438151;1253;138990;-70
2023/07/25 16:30:20;;;;;;;5.70;2.20;;;;;;;22.50;41.89;98056.45;435114;1254;138894;-71
2023/07/25 16:40:26;;;;;;;2.60;1.60;;;;;;;22.23;42.24;98060.14;435117;1253;139057;-68
2023/07/25 16:50:33;;;;;;;3.10;1.80;;;;;;;22.00;42.87;98060.92;435195;1253;139855;-67
2023/07/25 17:00:39;;;;;;;7.00;1.80;;;;;;;21.91;43.85;98069.91;435569;1256;139406;-65
2023/07/25 17:10:47;;;;;;;2.90;2.60;;;;;;;21.64;45.44;98081.41;435025;1254;138696;-64
2023/07/25 17:20:53;;;;;;;3.30;1.30;;;;;;;21.41;46.02;98095.75;435025;1256;138647;-66
2023/07/25 17:30:59;;;;;;;2.70;1.40;;;;;;;21.27;46.02;98091.27;434913;1256;140397;-67
2023/07/25 17:41:08;;;;;;;2.70;2.40;;;;;;;21.25;45.90;98095.09;435600;1256;140757;-66
2023/07/25 17:51:14;;;;;;;5.40;2.90;;;;;;;21.38;45.65;98098.50;435366;1256;138980;-63
2023/07/25 18:01:21;;;;;;;2.50;2.20;;;;;;;21.45;45.65;98106.30;435109;1254;140387;-66
2023/07/25 18:11:27;;;;;;;3.90;2.50;;;;;;;21.24;45.83;98107.45;435419;1256;138449;-64
2023/07/25 18:21:34;;;;;;;4.00;2.50;;;;;;;20.92;46.29;98104.80;435314;1256;138536;-64
2023/07/25 18:31:39;;;;;;;1.80;1.60;;;;;;;20.59;46.89;98106.91;435178;1254;139546;-68
2023/07/25 18:41:45;;;;;;;2.00;1.80;;;;;;;20.23;47.56;98103.56;435701;1253;138328;-68
2023/07/25 18:51:52;;;;;;;3.00;2.00;;;;;;;19.84;48.58;98101.35;436026;1253;140917;-67
2023/07/25 19:01:58;;;;;;;4.90;2.10;;;;;;;19.49;49.30;98118.45;435808;1256;140156;-68
2023/07/25 19:12:04;;;;;;;4.00;2.40;;;;;;;19.15;50.23;98119.23;435545;1254;138369;-68
2023/07/25 19:22:11;;;;;;;3.50;2.30;;;;;;;18.84;51.31;98122.98;435783;1254;139074;-68
2023/07/25 19:32:18;;;;;;;7.40;5.80;;;;;;;18.48;52.44;98124.13;435317;1253;139061;-68
2023/07/25 19:42:24;;;;;;;6.10;3.30;;;;;;;18.12;53.92;98134.44;435434;1254;165686;-67
2023/07/25 19:52:35;;;;;;;23.60;6.00;;;;;;;17.80;54.96;98142.77;435824;1256;138714;-67
2023/07/25 20:02:41;;;;;;;6.40;2.80;;;;;;;17.49;56.21;98156.62;435268;1254;140504;-67
2023/07/25 20:12:47;;;;;;;12.20;2.40;;;;;;;17.22;57.03;98155.38;435745;1256;139010;-65
2023/07/25 20:22:54;;;;;;;16.40;2.90;;;;;;;17.04;58.08;98158.68;436999;1256;138996;-67
2023/07/25 20:33:00;;;;;;;3.40;2.50;;;;;;;16.79;58.80;98168.77;435148;1256;141217;-67
2023/07/25 20:43:07;;;;;;;4.00;2.90;;;;;;;16.54;59.44;98171.13;435845;1253;139664;-67
2023/07/25 20:53:16;;;;;;;2.70;2.50;;;;;;;16.28;60.03;98180.53;435455;1256;140740;-67
2023/07/25 21:03:22;;;;;;;4.60;2.80;;;;;;;16.04;60.92;98186.34;435027;1254;139438;-67
2023/07/25 21:13:29;;;;;;;3.50;3.20;;;;;;;15.80;61.57;98182.49;435025;1256;139991;-68
2023/07/25 21:23:35;;;;;;;6.80;3.90;;;;;;;15.55;62.48;98182.73;435020;1254;139311;-69
2023/07/25 21:33:41;;;;;;;5.10;3.50;;;;;;;15.30;63.27;98183.41;434853;1256;140426;-66
2023/07/25 21:43:47;;;;;;;4.40;3.10;;;;;;;15.10;63.92;98187.55;435056;1254;139237;-67
2023/07/25 21:53:52;;;;;;;5.10;3.90;;;;;;;14.85;64.42;98188.41;435160;1256;139229;-66
2023/07/25 22:03:58;;;;;;;7.30;4.10;;;;;;;14.60;65.23;98191.88;435196;1253;139113;-67
2023/07/25 22:14:05;;;;;;;5.80;3.80;;;;;;;14.39;65.94;98199.25;435523;1256;140508;-66
2023/07/25 22:24:10;;;;;;;4.20;3.50;;;;;;;14.25;66.55;98209.60;435556;1256;139154;-64
2023/07/25 22:34:17;;;;;;;4.60;3.60;;;;;;;14.12;67.07;98218.89;435662;1254;139727;-65
2023/07/25 22:44:23;;;;;;;6.20;3.90;;;;;;;13.99;67.54;98215.90;435406;1253;139669;-64
2023/07/25 22:54:29;;;;;;;6.30;4.20;;;;;;;13.85;68.12;98209.11;435358;1256;140163;-65
2023/07/25 23:04:35;;;;;;;4.60;4.20;;;;;;;13.75;68.42;98217.40;435247;1256;140241;-65
2023/07/25 23:14:41;;;;;;;5.90;3.70;;;;;;;13.68;68.76;98206.00;435356;1253;139613;-64
2023/07/25 23:24:46;;;;;;;4.60;3.70;;;;;;;13.57;69.31;98196.36;435429;1256;141288;-66
2023/07/25 23:34:54;;;;;;;7.10;4.70;;;;;;;13.46;69.66;98216.01;436144;1253;139123;-64
2023/07/25 23:44:59;;;;;;;6.00;4.30;;;;;;;13.40;70.19;98217.11;435940;1256;140681;-66
2023/07/25 23:55:07;;;;;;;5.70;4.50;;;;;;;13.38;70.46;98219.59;435630;1256;140569;-67
